Alex, Oklahoma
Current Conditions -  °F | °C
As of 2:55 AM on Wednesday 28 Jan 2015 (Local Time) from KCHK Reporting Station
Clear Clear  
Wind Chill: 11°   Ceiling: Unl
Heat Index: 11°   Visibility: 10mi
Dew Point:   Wind: 7mph
Humidity: 67%   Direction: 190°S
Pressure: 30.03"   Gusts: NA
Location:  34.91°N, 97.78°W
Report Text: KCHK 280855Z AUTO 19006KT 10SM CLR 11/05 A3003 RMK AO2
Loading
Personal Weather Stations






























Interactive Weather Map New forecast layout! Learn more

10-Day Weather Forecast

Advertisements
Track Severe Weather on mobile